createdAt,value
2023-03-06T00:01:59.039Z,69.15
2023-03-06T00:05:01.929Z,69.18
2023-03-06T00:08:05.296Z,69.27
2023-03-06T00:11:08.116Z,69.36
2023-03-06T00:14:10.912Z,69.38
2023-03-06T00:17:13.712Z,69.52
2023-03-06T00:20:18.381Z,69.53
2023-03-06T00:23:21.307Z,69.42
2023-03-06T00:26:24.169Z,69.39
2023-03-06T00:29:27.047Z,69.28
2023-03-06T00:32:30.006Z,69.44
2023-03-06T00:35:32.876Z,69.58
2023-03-06T00:38:37.357Z,69.49
2023-03-06T00:41:40.097Z,69.35
2023-03-06T00:44:43.058Z,69.28
2023-03-06T00:47:45.900Z,69.26
2023-03-06T00:50:48.834Z,69.12
2023-03-06T00:53:51.634Z,69.34
2023-03-06T00:56:54.497Z,69.52
2023-03-06T00:59:57.316Z,69.23
2023-03-06T01:03:00.181Z,69.38
2023-03-06T01:06:03.158Z,69.30
2023-03-06T01:09:05.943Z,69.15
2023-03-06T01:12:09.523Z,69.12
2023-03-06T01:15:14.043Z,69.35
2023-03-06T01:18:16.966Z,69.48
2023-03-06T01:21:20.040Z,69.38
2023-03-06T01:24:25.875Z,69.18
2023-03-06T01:27:28.784Z,69.27
2023-03-06T01:30:31.638Z,69.12
2023-03-06T01:33:35.425Z,69.16
2023-03-06T01:36:38.649Z,69.10
2023-03-06T01:39:42.048Z,69.26
2023-03-06T01:42:46.739Z,69.25
2023-03-06T01:45:53.100Z,69.14
2023-03-06T01:49:01.042Z,69.00
2023-03-06T01:52:08.991Z,69.03
2023-03-06T01:55:21.723Z,68.95
2023-03-06T01:58:24.644Z,69.03
2023-03-06T02:01:27.830Z,69.18
2023-03-06T02:04:31.878Z,69.15
2023-03-06T02:07:37.386Z,69.03
2023-03-06T02:10:43.611Z,69.18
2023-03-06T02:13:47.481Z,69.00
2023-03-06T02:16:51.289Z,69.08
2023-03-06T02:20:12.183Z,69.29
2023-03-06T02:23:54.748Z,69.40
2023-03-06T02:26:59.422Z,69.31
2023-03-06T02:30:07.182Z,69.29
2023-03-06T02:33:18.736Z,69.32
2023-03-06T02:36:21.816Z,69.49
2023-03-06T02:39:28.673Z,69.33
2023-03-06T02:42:31.591Z,69.50
2023-03-06T02:45:42.655Z,69.77
2023-03-06T02:48:45.425Z,69.76
2023-03-06T02:51:48.250Z,69.80
2023-03-06T02:54:51.547Z,69.70
2023-03-06T02:57:54.346Z,69.69
2023-03-06T03:00:57.135Z,70.13
2023-03-06T03:03:59.995Z,70.14
2023-03-06T03:07:02.836Z,70.14
2023-03-06T03:10:06.241Z,70.06
2023-03-06T03:13:09.098Z,69.94
2023-03-06T03:16:15.622Z,70.05
2023-03-06T03:19:18.557Z,70.12
2023-03-06T03:22:21.386Z,70.15
2023-03-06T03:25:26.006Z,70.32
2023-03-06T03:28:28.875Z,70.38
2023-03-06T03:31:32.597Z,69.97
2023-03-06T03:34:35.593Z,70.33
2023-03-06T03:37:38.836Z,70.07
2023-03-06T03:40:41.590Z,70.34
2023-03-06T03:43:44.449Z,70.50
2023-03-06T03:46:47.376Z,70.58
2023-03-06T03:49:51.479Z,70.73
2023-03-06T03:52:54.278Z,70.67
2023-03-06T03:55:57.246Z,70.76
2023-03-06T03:59:00.563Z,71.06
2023-03-06T04:02:06.242Z,71.24
2023-03-06T04:05:10.906Z,71.34
2023-03-06T04:08:14.012Z,71.54
2023-03-06T04:11:17.038Z,71.47
2023-03-06T04:14:19.829Z,71.71
2023-03-06T04:17:22.791Z,72.04
2023-03-06T04:20:26.196Z,72.07
2023-03-06T04:23:28.991Z,72.34
2023-03-06T04:26:32.023Z,72.35
2023-03-06T04:29:34.966Z,72.44
2023-03-06T04:32:37.971Z,72.64
2023-03-06T04:35:41.403Z,72.88
2023-03-06T04:38:44.315Z,72.83
2023-03-06T04:41:47.173Z,73.17
2023-03-06T04:44:49.990Z,73.75
2023-03-06T04:47:52.974Z,73.75
2023-03-06T04:50:55.784Z,73.75
2023-03-06T04:53:59.519Z,73.56
2023-03-06T04:57:02.373Z,73.91
2023-03-06T05:00:09.955Z,74.10
2023-03-06T05:03:14.520Z,74.20
2023-03-06T05:06:17.339Z,74.27
2023-03-06T05:09:20.161Z,74.43
2023-03-06T05:12:22.944Z,74.70
2023-03-06T05:15:25.819Z,74.87
2023-03-06T05:18:28.710Z,74.56
2023-03-06T05:21:31.588Z,74.56
2023-03-06T05:24:34.388Z,74.74
2023-03-06T05:27:37.971Z,74.73
2023-03-06T05:30:40.764Z,74.85
2023-03-06T05:33:44.352Z,74.73
2023-03-06T05:36:47.764Z,74.83
2023-03-06T05:39:51.272Z,75.25
2023-03-06T05:42:54.183Z,75.56
2023-03-06T05:46:05.107Z,75.70
2023-03-06T05:49:08.047Z,75.71
2023-03-06T05:52:12.252Z,75.71
2023-03-06T05:55:15.788Z,75.72
2023-03-06T05:58:18.581Z,75.90
2023-03-06T06:01:21.459Z,75.96
2023-03-06T06:04:26.307Z,76.00
2023-03-06T06:07:29.138Z,76.27
2023-03-06T06:10:31.913Z,76.02
2023-03-06T06:13:34.742Z,76.10
2023-03-06T06:16:37.526Z,76.05
2023-03-06T06:19:40.499Z,76.26
2023-03-06T06:22:43.410Z,76.17
2023-03-06T06:25:46.404Z,76.25
2023-03-06T06:28:49.144Z,76.16
2023-03-06T06:31:53.091Z,76.20
2023-03-06T06:34:56.713Z,76.19
2023-03-06T06:37:59.493Z,76.15
2023-03-06T06:41:35.552Z,76.09
2023-03-06T06:44:27.830Z,75.98
2023-03-06T06:47:30.866Z,76.01
2023-03-06T06:50:33.718Z,76.06
2023-03-06T06:53:36.439Z,76.15
2023-03-06T06:56:39.331Z,76.02
2023-03-06T06:59:42.589Z,75.95
2023-03-06T07:02:49.200Z,75.95
2023-03-06T07:05:56.264Z,75.96
2023-03-06T07:09:01.145Z,75.95
2023-03-06T07:12:04.121Z,76.09
2023-03-06T07:15:08.228Z,75.83
2023-03-06T07:18:11.253Z,75.88
2023-03-06T07:21:14.212Z,75.76
2023-03-06T18:43:23.268Z,80.19
2023-03-06T18:48:05.058Z,80.25
2023-03-06T18:51:11.878Z,80.08
2023-03-06T18:54:16.718Z,80.13
2023-03-06T18:57:20.435Z,79.90
2023-03-06T19:00:25.838Z,79.95
2023-03-06T19:03:33.090Z,79.60
2023-03-06T19:06:38.630Z,79.29
2023-03-06T19:09:44.641Z,79.05
2023-03-06T19:12:47.622Z,78.62
2023-03-06T19:15:50.728Z,78.48
2023-03-06T19:18:57.728Z,78.40
2023-03-06T19:22:07.825Z,77.88
2023-03-06T19:25:10.755Z,77.69
2023-03-06T19:28:13.606Z,77.80
2023-03-06T19:31:25.230Z,77.65
2023-03-06T19:34:28.321Z,77.49
2023-03-06T19:37:31.336Z,77.22
2023-03-06T19:40:34.643Z,77.04
2023-03-06T19:43:37.948Z,77.12
2023-03-06T19:46:40.830Z,76.66
2023-03-06T19:49:43.685Z,76.74
2023-03-06T19:52:49.802Z,76.70
2023-03-06T19:55:54.944Z,76.73
2023-03-06T19:58:58.108Z,76.54
2023-03-06T20:02:19.836Z,76.71
2023-03-06T20:05:23.633Z,76.70
2023-03-06T20:08:27.089Z,76.50
2023-03-06T20:12:01.679Z,76.37
2023-03-06T20:15:05.379Z,75.73
2023-03-06T20:18:08.575Z,76.29
2023-03-06T20:21:12.124Z,77.09
2023-03-06T20:24:17.012Z,76.92
2023-03-06T20:31:56.410Z,77.70
2023-03-06T20:34:59.564Z,77.78
2023-03-06T20:38:02.534Z,77.70
2023-03-06T20:41:08.875Z,78.12
2023-03-06T20:44:17.501Z,77.92
2023-03-06T20:47:20.423Z,78.03
2023-03-06T20:50:28.369Z,78.08
2023-03-06T20:53:31.625Z,77.98
2023-03-06T20:56:39.489Z,77.97
2023-03-06T20:59:42.564Z,77.48
2023-03-06T21:02:45.466Z,77.63
2023-03-06T21:05:48.512Z,77.66
2023-03-06T21:08:51.427Z,77.50
2023-03-06T21:11:54.406Z,77.47
2023-03-06T21:14:59.118Z,77.41
2023-03-06T21:18:02.055Z,77.14
2023-03-06T21:21:10.590Z,77.40
2023-03-06T21:24:13.420Z,77.37
2023-03-06T21:27:16.473Z,77.18
2023-03-06T21:30:19.494Z,77.20
2023-03-06T21:33:22.476Z,77.14
2023-03-06T21:36:26.954Z,77.36
2023-03-06T21:39:29.897Z,77.12
2023-03-06T21:42:38.663Z,77.14
2023-03-06T21:45:49.049Z,77.23
2023-03-06T21:48:53.143Z,77.15
2023-03-06T21:51:56.034Z,77.05
2023-03-06T21:54:58.896Z,76.90
2023-03-06T21:58:01.761Z,77.20
2023-03-06T22:01:19.161Z,77.21
2023-03-06T22:04:23.346Z,77.10
2023-03-06T22:07:26.355Z,76.82
2023-03-06T22:10:29.135Z,77.07
2023-03-06T22:13:32.007Z,76.94
2023-03-06T22:16:34.948Z,77.13
2023-03-06T22:19:37.899Z,77.18
2023-03-06T22:22:40.981Z,77.01
2023-03-06T22:25:43.820Z,76.91
2023-03-06T22:28:46.845Z,77.16
2023-03-06T22:31:50.203Z,77.29
2023-03-06T22:34:53.124Z,77.18
2023-03-06T22:37:56.459Z,77.15
2023-03-06T22:40:59.437Z,77.17
2023-03-06T22:44:03.155Z,77.07
2023-03-06T22:47:07.317Z,77.22
2023-03-06T22:50:14.311Z,77.32
2023-03-06T22:53:17.275Z,77.28
2023-03-06T22:56:21.770Z,77.25
2023-03-06T22:59:24.500Z,77.10
2023-03-06T23:02:32.789Z,76.99
2023-03-06T23:05:40.660Z,77.30
2023-03-06T23:08:45.334Z,77.16
2023-03-06T23:11:49.605Z,77.20
2023-03-06T23:14:52.611Z,77.02
2023-03-06T23:17:55.465Z,77.20
2023-03-06T23:21:25.134Z,77.19
2023-03-06T23:24:28.839Z,77.27
2023-03-06T23:27:31.825Z,77.23
2023-03-06T23:30:34.707Z,77.07
2023-03-06T23:33:38.926Z,77.33
2023-03-06T23:36:41.964Z,77.51
2023-03-06T23:39:44.907Z,77.57
2023-03-06T23:42:49.424Z,77.57
2023-03-06T23:45:56.202Z,77.40
2023-03-06T23:48:59.321Z,77.27
2023-03-06T23:52:02.219Z,77.44
2023-03-06T23:55:05.935Z,77.79
2023-03-06T23:58:08.927Z,77.69
